ROYN/OGN METAR and TAF weather

Enter ICAO airport designator
Station Type Date Time Source
ROYN METAR 2019/12/08 06:00 UTC NOAA

ROYN 080600Z AUTO 01022KT 9999 SCT038 SCT041 BKN050 20/12 Q1022


Station Type Date Time Source
ROYN Decoded METAR 2019/12/08 06:00 UTC NOAA

Yonaguni Airport, Japan (ROYN) 24-28N 122-59E 19M
Dec 08, 2019 - 01:00 AM EST / 2019.12.08 0600 UTC
Wind: from the N (010 degrees) at 25 MPH (22 KT):0
Visibility: greater than 7 mile(s):0
Sky conditions: mostly cloudy
Temperature: 68 F (20 C)
Dew Point: 53 F (12 C)
Relative Humidity: 59%
Pressure (altimeter): 30.18 in. Hg (1022 hPa)
ob: ROYN 080600Z AUTO 01022KT 9999 SCT038 SCT041 BKN050 20/12 Q1022
cycle: 6

Station Type Date Time Source
ROYN TAF UTC NOAA

Error!

Example: see airport list